M I D A S
Marine Information and Data Acquisition System
Tripno 642 of the Zeeleeuw from 2004-02-04 07:15:13 to 2004-02-04 13:43:02
Back to CruiseResearch ActivitiesStationsMapUnderway DataData graphs

EquipmentUnitsComment
TimeDGPSUTC
LatitudeDGPSDM.mWGS84
LongitudeDGPSDM.mWGS84
TemperatureSBE03/SBE38deg celciusITS90
ConductivitySBE21S/mITS90
SalinitySBE21 Practical Salinity Units
ChlorophylAChelsea fluorimeterg/lCalibrated in Aceton
Missing or incorrect values are displayed as -999
Sea surface data collected by the RV Zeeleeuw from 2004-02-04 07:15:13 to 2004-02-04 13:43:02
Time Latitude Longitude Temperature Conductivity Salinity ChlorophylA
2004-02-04 07:16:14 51°13.594 2°56.108 7.751171 3.118726 29.664303 2.488563
2004-02-04 07:17:15 51°13.606 2°56.063 7.862375 2.888506 27.22479 3.19646
2004-02-04 07:18:14 51°13.632 2°55.972 7.924153 2.57014 23.881384 4.679674
2004-02-04 07:19:14 51°13.643 2°55.926 7.915774 2.460246 22.748907 4.679674
2004-02-04 07:20:14 51°13.67 2°55.852 7.800829 2.638193 24.61051 4.544836
2004-02-04 07:21:14 51°13.681 2°55.836 7.834204 2.89219 27.288543 4.275161
2004-02-04 07:22:15 51°13.677 2°55.763 7.82528 2.668805 24.931178 4.645965
2004-02-04 07:23:14 51°13.72 2°55.749 8.027564 2.720669 25.448187 4.780802
2004-02-04 07:24:14 51°13.811 2°55.656 8.068747 2.137883 19.436389 5.792084
2004-02-04 07:25:14 51°13.926 2°55.561 7.941682 2.210489 20.159645 5.758375
2004-02-04 07:26:14 51°14.049 2°55.474 7.858303 2.704362 25.262333 4.544836
2004-02-04 07:27:14 51°14.182 2°55.361 7.932289 2.689844 25.120995 4.544836
2004-02-04 07:28:14 51°14.316 2°55.17 7.924589 2.53985 23.546124 5.185315
2004-02-04 07:29:14 51°14.476 2°54.951 7.87997 2.65576 24.733997 5.084187
2004-02-04 07:30:14 51°14.637 2°54.729 7.743983 3.236451 30.905842 3.23017
2004-02-04 07:31:14 51°14.679 2°54.422 7.737329 3.246456 31.072048 2.522272
2004-02-04 07:32:14 51°14.62 2°54.281 7.768262 3.124201 29.735441 2.454853
2004-02-04 07:33:14 51°14.574 2°54.223 7.692774 3.198646 30.543038 2.185178
2004-02-04 07:34:14 51°14.543 2°54.19 7.658888 3.330291 32.002482 1.949212
2004-02-04 07:35:14 51°14.501 2°54.107 7.662243 3.358414 32.317115 1.746956
2004-02-04 07:36:14 51°14.401 2°53.84 7.626832 3.367684 32.424669 1.848084
2004-02-04 07:37:14 51°14.279 2°53.528 7.624935 3.405815 32.848154 1.612118
2004-02-04 07:38:14 51°14.153 2°53.212 7.618609 3.410345 32.893475 1.578409
2004-02-04 07:39:14 51°14.029 2°52.89 7.623767 3.421406 33.021482 1.578409
2004-02-04 07:40:14 51°13.906 2°52.569 7.626638 3.417192 32.975542 1.443571
2004-02-04 07:41:14 51°13.782 2°52.247 7.637292 3.41045 32.889843 1.477281
2004-02-04 07:42:14 51°13.658 2°51.926 7.645805 3.412873 32.920543 1.308734
2004-02-04 07:43:14 51°13.535 2°51.603 7.65456 3.403498 32.801984 1.308734
2004-02-04 07:44:14 51°13.415 2°51.277 7.624789 3.41635 32.957768 1.207606
2004-02-04 07:45:14 51°13.296 2°50.948 7.631357 3.423934 33.04937 1.207606
2004-02-04 07:46:14 51°13.177 2°50.621 7.640795 3.430465 33.116175 1.207606
2004-02-04 07:47:14 51°13.058 2°50.294 7.615592 3.442369 33.241394 1.072768
2004-02-04 07:48:14 51°12.939 2°49.968 7.600602 3.454695 33.396165 1.106477
2004-02-04 07:49:14 51°12.82 2°49.643 7.585073 3.46049 33.472933 1.072768
2004-02-04 07:50:14 51°12.702 2°49.32 7.56842 3.46502 33.539437 1.072768
2004-02-04 07:51:14 51°12.584 2°48.997 7.552347 3.464809 33.541225 1.039059
2004-02-04 07:52:14 51°12.467 2°48.675 7.537099 3.462808 33.532673 0.93793
2004-02-04 07:53:14 51°12.349 2°48.353 7.523211 3.459648 33.527873 0.93793
2004-02-04 07:54:14 51°12.233 2°48.03 7.527987 3.460596 33.536456 0.93793
2004-02-04 07:55:14 51°12.118 2°47.707 7.533152 3.459015 33.517012 0.904221
2004-02-04 07:56:14 51°12.012 2°47.379 7.548012 3.456698 33.483153 0.93793
2004-02-04 07:57:14 51°11.908 2°47.049 7.551714 3.456065 33.465824 1.005349
2004-02-04 07:58:14 51°11.803 2°46.719 7.547914 3.454696 33.455142 1.039059
2004-02-04 07:59:14 51°11.7 2°46.389 7.540217 3.455433 33.467122 0.870512
2004-02-04 08:00:14 51°11.597 2°46.056 7.537927 3.456066 33.477972 0.870512
2004-02-04 08:01:14 51°11.499 2°45.72 7.546307 3.456066 33.474732 0.904221
2004-02-04 08:02:14 51°11.411 2°45.377 7.556049 3.456065 33.465015 1.005349
2004-02-04 08:03:14 51°11.324 2°45.033 7.554442 3.457013 33.471164 1.005349
2004-02-04 08:04:14 51°11.237 2°44.69 7.545966 3.459437 33.505327 1.039059
2004-02-04 08:05:14 51°11.154 2°44.343 7.542312 3.461333 33.530595 1.039059
2004-02-04 08:06:14 51°11.085 2°43.988 7.537488 3.463335 33.558631 1.039059
2004-02-04 08:07:14 51°11.017 2°43.633 7.536855 3.466074 33.588116 1.072768
2004-02-04 08:08:14 51°10.948 2°43.28 7.537099 3.468075 33.608851 0.97164
2004-02-04 08:09:14 51°10.881 2°42.925 7.530033 3.470709 33.641278 1.039059
2004-02-04 08:10:14 51°10.815 2°42.568 7.523211 3.47408 33.685737 0.97164
2004-02-04 08:11:14 51°10.748 2°42.213 7.51088 3.478927 33.745303 1.005349
2004-02-04 08:12:14 51°10.681 2°41.857 7.507956 3.482087 33.786732 1.039059
2004-02-04 08:13:14 51°10.614 2°41.502 7.499766 3.48451 33.816954 0.836802
2004-02-04 08:14:14 51°10.546 2°41.148 7.488357 3.486723 33.848195 1.173896
2004-02-04 08:15:14 51°10.48 2°40.793 7.476117 3.489041 33.88716 0.97164
2004-02-04 08:16:14 51°10.418 2°40.44 7.617587 3.460174 33.548976 0.904221
2004-02-04 08:17:14 51°10.353 2°40.09 7.722708 3.370843 32.447474 1.140187
2004-02-04 08:18:14 51°10.289 2°39.74 7.689761 3.345668 32.115348 1.308734
2004-02-04 08:19:14 51°10.225 2°39.389 7.747723 3.378427 32.503416 1.241315
2004-02-04 08:20:14 51°10.162 2°39.036 7.772679 3.37 32.362841 1.241315
2004-02-04 08:21:14 51°10.099 2°38.684 7.753307 3.369578 32.342806 1.275024
2004-02-04 08:22:14 51°10.035 2°38.331 7.765397 3.377268 32.423918 1.207606
2004-02-04 08:23:14 51°9.972 2°37.978 7.769864 3.390224 32.562745 1.173896
2004-02-04 08:24:14 51°9.908 2°37.625 7.773893 3.392752 32.581082 1.241315
2004-02-04 08:25:14 51°9.838 2°37.276 7.784717 3.396123 32.603694 1.173896
2004-02-04 08:26:14 51°9.768 2°36.927 7.751899 3.412556 32.797729 1.241315
2004-02-04 08:27:14 51°9.697 2°36.577 7.735921 3.433203 33.039527 1.207606
2004-02-04 08:28:14 51°9.626 2°36.228 7.71785 3.449953 33.232152 1.173896
2004-02-04 08:29:14 51°9.556 2°35.88 7.693892 3.473025 33.500849 1.376153
2004-02-04 08:30:14 51°9.496 2°35.615 7.676927 3.485035 33.649026 1.275024
2004-02-04 08:31:14 51°9.487 2°35.463 7.659374 3.494412 33.763467 1.376153
2004-02-04 08:32:14 51°9.507 2°35.391 7.647167 3.500839 33.848798 1.342443
2004-02-04 08:33:14 51°9.538 2°35.329 7.646924 3.502524 33.87263 1.342443
2004-02-04 08:34:14 51°9.583 2°35.288 7.634373 3.504948 33.906855 1.241315
2004-02-04 08:35:14 51°9.634 2°35.272 7.633206 3.506423 33.925989 1.241315
2004-02-04 08:36:14 51°9.686 2°35.279 7.637827 3.50558 33.917744 1.409862
2004-02-04 08:37:14 51°9.736 2°35.31 7.635881 3.505369 33.915478 1.342443
2004-02-04 08:38:14 51°9.778 2°35.362 7.637925 3.506423 33.925989 1.376153
2004-02-04 08:39:14 51°9.807 2°35.429 7.645854 3.50558 33.910379 1.275024
2004-02-04 08:40:14 51°9.822 2°35.502 7.647361 3.502946 33.87716 1.207606
2004-02-04 08:41:14 51°9.825 2°35.576 7.647313 3.502419 33.872315 1.140187
2004-02-04 08:42:14 51°9.819 2°35.645 7.645951 3.502419 33.874766 1.241315
2004-02-04 08:43:14 51°9.809 2°35.71 7.651398 3.500207 33.847719 1.173896
2004-02-04 08:44:14 51°9.792 2°35.768 7.655532 3.497046 33.808862 1.173896
2004-02-04 08:45:14 51°9.772 2°35.819 7.656554 3.495676 33.791703 1.207606
2004-02-04 08:46:14 51°9.749 2°35.864 7.656067 3.495255 33.787176 1.275024
2004-02-04 08:47:14 51°9.724 2°35.903 7.659569 3.494939 33.782151 1.308734
2004-02-04 08:48:14 51°9.699 2°35.938 7.664723 3.493253 33.760789 1.207606
2004-02-04 08:49:14 51°9.678 2°35.968 7.676052 3.492199 33.7389 1.275024
2004-02-04 08:50:14 51°9.659 2°35.994 7.674642 3.489882 33.706707 1.241315
2004-02-04 08:51:14 51°9.622 2°35.959 7.675809 3.490935 33.724515 1.275024
2004-02-04 08:52:14 51°9.671 2°35.838 7.683247 3.485878 33.656446 1.51099
2004-02-04 08:53:14 51°9.808 2°35.638 7.673621 3.492621 33.736919 1.376153
2004-02-04 08:54:14 51°10.028 2°35.533 7.664237 3.499364 33.822345 1.275024
2004-02-04 08:55:14 51°10.26 2°35.544 7.709201 3.538135 34.199587 1.814375
2004-02-04 08:56:14 51°10.487 2°35.607 7.684657 3.547196 34.303601 2.050341
2004-02-04 08:57:14 51°10.695 2°35.78 7.680865 3.545826 34.302092 2.353725
2004-02-04 08:58:14 51°10.896 2°35.98 7.680039 3.544457 34.293969 2.252597
2004-02-04 08:59:14 51°11.098 2°36.179 7.667349 3.543403 34.287592 1.982922
2004-02-04 09:00:14 51°11.299 2°36.378 7.652322 3.54098 34.275565 2.08405
2004-02-04 09:01:14 51°11.5 2°36.581 7.648869 3.539084 34.26507 2.050341
2004-02-04 09:02:14 51°11.698 2°36.788 7.638654 3.537714 34.256936 2.185178
2004-02-04 09:03:14 51°11.899 2°36.992 7.63773 3.537082 34.250957 1.915503
2004-02-04 09:04:14 51°12.098 2°37.197 7.640308 3.53645 34.249109 1.814375
2004-02-04 09:05:14 51°12.297 2°37.398 7.635298 3.536871 34.255301 1.746956
2004-02-04 09:06:14 51°12.496 2°37.602 7.626832 3.536766 34.2583 1.848084
2004-02-04 09:07:14 51°12.696 2°37.81 7.608973 3.536977 34.272152 1.746956
2004-02-04 09:08:14 51°12.894 2°38.021 7.593933 3.534975 34.266307 1.612118
2004-02-04 09:09:14 51°13.092 2°38.235 7.579522 3.53329 34.266352 1.746956
2004-02-04 09:10:14 51°13.289 2°38.45 7.557705 3.531288 34.258846 1.645828
2004-02-04 09:11:14 51°13.489 2°38.665 7.53169 3.529076 34.257352 1.679537
2004-02-04 09:12:14 51°13.694 2°38.851 7.489966 3.526021 34.257543 1.578409
2004-02-04 09:13:14 51°13.918 2°38.96 7.476312 3.525283 34.269504 1.5447
2004-02-04 09:14:14 51°14.145 2°39.014 7.471679 3.526864 34.302386 1.645828
2004-02-04 09:15:14 51°14.347 2°38.884 7.468655 3.529182 34.328285 1.746956
2004-02-04 09:16:14 51°14.399 2°38.565 7.466997 3.528444 34.329469 1.746956
2004-02-04 09:17:14 51°14.317 2°38.238 7.47124 3.52876 34.329556 1.578409
2004-02-04 09:18:14 51°14.23 2°37.914 7.484212 3.531184 34.346604 1.645828
2004-02-04 09:19:14 51°14.137 2°37.595 7.507468 3.533817 34.357592 1.848084
2004-02-04 09:20:14 51°14.043 2°37.28 7.529741 3.536978 34.365941 1.713247
2004-02-04 09:21:14 51°13.951 2°36.966 7.547914 3.53919 34.374028 1.746956
2004-02-04 09:22:14 51°13.858 2°36.654 7.55829 3.540771 34.377781 1.814375
2004-02-04 09:23:14 51°13.766 2°36.345 7.558436 3.541087 34.376203 1.814375
2004-02-04 09:24:14 51°13.674 2°36.035 7.552152 3.539822 34.367544 1.713247
2004-02-04 09:25:14 51°13.582 2°35.726 7.549327 3.538453 34.356082 1.881794
2004-02-04 09:26:14 51°13.491 2°35.419 7.562673 3.539085 34.360413 1.746956
2004-02-04 09:27:14 51°13.401 2°35.112 7.58332 3.541508 34.369111 1.848084
2004-02-04 09:28:14 51°13.309 2°34.806 7.617003 3.545195 34.383131 2.08405
2004-02-04 09:29:14 51°13.216 2°34.5 7.650036 3.551411 34.414425 2.151469
2004-02-04 09:30:14 51°13.122 2°34.193 7.670801 3.556679 34.4446 2.08405
2004-02-04 09:31:14 51°13.029 2°33.887 7.6779 3.558786 34.454833 2.08405
2004-02-04 09:32:14 51°12.934 2°33.58 7.687816 3.560472 34.463847 2.08405
2004-02-04 09:33:14 51°12.84 2°33.274 7.696808 3.561736 34.471643 2.016631
2004-02-04 09:34:14 51°12.747 2°32.967 7.70405 3.563001 34.476946 2.050341
2004-02-04 09:35:14 51°12.654 2°32.658 7.713477 3.565108 34.489656 2.117759
2004-02-04 09:36:14 51°12.56 2°32.35 7.724603 3.567847 34.509163 2.117759
2004-02-04 09:37:14 51°12.466 2°32.041 7.728683 3.569954 34.522693 1.881794
2004-02-04 09:38:14 51°12.373 2°31.73 7.729169 3.570903 34.5304 1.982922
2004-02-04 09:39:14 51°12.281 2°31.418 7.728246 3.571324 34.536597 2.016631
2004-02-04 09:40:14 51°12.189 2°31.107 7.727469 3.571324 34.537428 2.016631
2004-02-04 09:41:14 51°12.098 2°30.797 7.725331 3.57164 34.54166 2.08405
2004-02-04 09:42:14 51°12.009 2°30.486 7.730529 3.572167 34.548159 2.218888
2004-02-04 09:43:14 51°11.922 2°30.179 7.74816 3.573958 34.55828 2.185178
2004-02-04 09:44:14 51°11.836 2°29.874 7.776514 3.576697 34.565291 2.117759
2004-02-04 09:45:14 51°11.753 2°29.577 7.770009 3.579648 34.577055 2.050341
2004-02-04 09:46:14 51°11.669 2°29.287 7.768359 3.577013 34.557886 2.08405
2004-02-04 09:47:14 51°11.586 2°29.002 7.751899 3.575222 34.548602 1.949212
2004-02-04 09:48:14 51°11.502 2°28.718 7.738884 3.571851 34.527305 1.949212
2004-02-04 09:49:14 51°11.418 2°28.432 7.722125 3.56869 34.510754 2.252597
2004-02-04 09:50:14 51°11.334 2°28.148 7.701717 3.566372 34.500769 2.454853
2004-02-04 09:51:14 51°11.3 2°27.838 7.697635 3.565002 34.496831 2.286306
2004-02-04 09:52:14 51°11.328 2°27.516 7.695253 3.562368 34.475126 2.387435
2004-02-04 09:53:14 51°11.32 2°27.19 7.76831 3.569849 34.527377 2.320016
2004-02-04 09:54:14 51°11.292 2°26.864 7.818974 3.582598 34.592964 2.08405
2004-02-04 09:55:14 51°11.26 2°26.542 7.841866 3.588076 34.616076 2.050341
2004-02-04 09:56:14 51°11.228 2°26.222 7.840024 3.589341 34.622172 1.982922
2004-02-04 09:57:14 51°11.235 2°25.907 7.809951 3.588709 34.622862 1.814375
2004-02-04 09:58:14 51°11.38 2°25.672 7.773602 3.583546 34.603152 2.016631
2004-02-04 09:59:14 51°11.611 2°25.656 7.740875 3.576381 34.56688 1.949212
2004-02-04 10:00:14 51°11.853 2°25.696 7.746752 3.575433 34.568325 1.780665
2004-02-04 10:01:14 51°12.095 2°25.754 7.760979 3.579121 34.590515 1.915503
2004-02-04 10:02:14 51°12.339 2°25.817 7.761125 3.580175 34.601012 1.814375
2004-02-04 10:03:14 51°12.583 2°25.878 7.778116 3.58186 34.607488 1.780665
2004-02-04 10:04:14 51°12.827 2°25.92 7.7886 3.583862 34.617358 1.746956
2004-02-04 10:05:14 51°13.056 2°25.937 7.797529 3.585864 34.630552 1.746956
2004-02-04 10:06:14 51°13.226 2°25.968 7.808059 3.587444 34.630896 1.949212
2004-02-04 10:07:14 51°13.358 2°26.037 7.821399 3.589552 34.645212 1.814375
2004-02-04 10:08:14 51°13.455 2°26.164 7.830324 3.591132 34.65054 1.578409
2004-02-04 10:09:14 51°13.482 2°26.299 7.834301 3.59187 34.650975 1.645828
2004-02-04 10:10:14 51°13.496 2°26.37 7.835756 3.59187 34.65347 1.645828
2004-02-04 10:11:14 51°13.503 2°26.456 7.832652 3.591448 34.648114 1.780665
2004-02-04 10:12:14 51°13.506 2°26.546 7.830082 3.591343 34.649477 1.679537
2004-02-04 10:13:14 51°13.506 2°26.622 7.82625 3.591132 34.648046 1.746956
2004-02-04 10:14:14 51°13.505 2°26.685 7.824989 3.590078 34.643385 1.679537
2004-02-04 10:15:14 51°13.505 2°26.739 7.815918 3.589552 34.640222 1.848084
2004-02-04 10:16:14 51°13.504 2°26.789 7.814899 3.589025 34.63706 1.814375
2004-02-04 10:17:14 51°13.5 2°26.829 7.815433 3.588603 34.634197 1.746956
2004-02-04 10:18:14 51°13.494 2°26.845 7.815384 3.588393 34.634428 1.881794
2004-02-04 10:19:14 51°13.512 2°26.824 7.808204 3.588182 34.635491 1.915503
2004-02-04 10:20:14 51°13.548 2°26.778 7.813977 3.587971 34.636554 1.814375
2004-02-04 10:21:14 51°13.594 2°26.747 7.816597 3.588393 34.63526 1.982922
2004-02-04 10:22:14 51°13.639 2°26.733 7.825474 3.589657 34.643017 1.881794
2004-02-04 10:23:14 51°13.687 2°26.731 7.830324 3.590921 34.649109 1.949212
2004-02-04 10:24:14 51°13.735 2°26.738 7.838666 3.59187 34.650144 1.780665
2004-02-04 10:25:14 51°13.779 2°26.754 7.842982 3.592923 34.658128 1.982922
2004-02-04 10:26:14 51°13.84 2°26.762 7.842254 3.593239 34.659858 1.915503
2004-02-04 10:27:14 51°13.989 2°26.877 7.861115 3.594504 34.663452 2.050341
2004-02-04 10:28:14 51°14.177 2°27.125 7.868386 3.595979 34.669306 1.848084
2004-02-04 10:29:14 51°14.369 2°27.386 7.873572 3.596295 34.665218 1.814375
2004-02-04 10:30:14 51°14.561 2°27.651 7.86126 3.59777 34.675224 2.050341
2004-02-04 10:31:14 51°14.753 2°27.912 7.848606 3.595241 34.665548 2.117759
2004-02-04 10:32:14 51°14.948 2°28.178 7.839733 3.593239 34.657365 1.982922
2004-02-04 10:33:14 51°15.14 2°28.443 7.838229 3.592818 34.661986 1.915503
2004-02-04 10:34:14 51°15.336 2°28.698 7.841139 3.593872 34.665812 1.915503
2004-02-04 10:35:14 51°15.533 2°28.956 7.865478 3.595979 34.67845 1.949212
2004-02-04 10:36:14 51°15.729 2°29.217 7.859612 3.598508 34.692278 1.713247
2004-02-04 10:37:14 51°15.923 2°29.471 7.860485 3.597875 34.696307 2.050341
2004-02-04 10:38:14 51°16.122 2°29.729 7.907442 3.599666 34.689746 1.848084
2004-02-04 10:39:14 51°16.318 2°29.988 7.962595 3.607779 34.717718 1.949212
2004-02-04 10:40:14 51°16.518 2°30.241 7.950058 3.609781 34.728363 1.881794
2004-02-04 10:41:14 51°16.713 2°30.498 7.979823 3.612099 34.735746 2.218888
2004-02-04 10:42:14 51°16.907 2°30.75 8.028145 3.616103 34.750375 1.982922
2004-02-04 10:43:14 51°17.1 2°31.003 8.071501 3.622214 34.765959 1.982922
2004-02-04 10:44:14 51°17.289 2°31.265 8.102804 3.626745 34.777898 2.151469
2004-02-04 10:45:14 51°17.472 2°31.537 8.11565 3.627377 34.76313 2.050341
2004-02-04 10:46:14 51°17.663 2°31.796 8.113525 3.628325 34.766629 2.117759
2004-02-04 10:47:14 51°17.847 2°32.072 8.105461 3.626112 34.746335 1.814375
2004-02-04 10:48:14 51°18.02 2°32.362 8.094738 3.624321 34.735493 1.848084
2004-02-04 10:49:14 51°18.198 2°32.647 8.087203 3.62253 34.726301 2.016631
2004-02-04 10:50:14 51°18.377 2°32.938 8.075318 3.620317 34.716739 1.814375
2004-02-04 10:51:14 51°18.546 2°33.231 8.055506 3.616102 34.691584 1.814375
2004-02-04 10:52:14 51°18.717 2°33.523 8.034817 3.614522 34.689587 1.713247
2004-02-04 10:53:14 51°18.888 2°33.823 8.02418 3.612204 34.675574 1.814375
2004-02-04 10:54:14 51°19.054 2°34.133 7.991967 3.609148 34.664422 1.814375
2004-02-04 10:55:14 51°19.224 2°34.429 7.967773 3.604723 34.644405 1.713247
2004-02-04 10:56:14 51°19.393 2°34.728 7.935049 3.600614 34.630234 1.578409
2004-02-04 10:57:14 51°19.554 2°35.027 7.898044 3.595873 34.610105 1.679537
2004-02-04 10:58:14 51°19.643 2°35.262 7.874735 3.590288 34.582577 1.578409
2004-02-04 10:59:14 51°19.658 2°35.361 7.861115 3.588392 34.580473 1.5447
2004-02-04 11:00:14 51°19.668 2°35.426 7.867029 3.589024 34.589738 1.376153
2004-02-04 11:01:14 51°19.663 2°35.502 7.878128 3.589551 34.584612 1.443571
2004-02-04 11:02:14 51°19.652 2°35.581 7.883653 3.591237 34.596054 1.342443
2004-02-04 11:03:14 51°19.641 2°35.648 7.894943 3.59229 34.599061 1.51099
2004-02-04 11:04:14 51°19.637 2°35.71 7.904875 3.594187 34.606956 1.5447
2004-02-04 11:05:14 51°19.626 2°35.771 7.921925 3.595451 34.612217 1.443571
2004-02-04 11:06:14 51°19.611 2°35.824 7.931465 3.59798 34.625219 1.443571
2004-02-04 11:07:14 51°19.596 2°35.868 7.947298 3.600192 34.63069 1.51099
2004-02-04 11:08:14 51°19.582 2°35.9 7.95911 3.601878 34.63797 1.376153
2004-02-04 11:09:14 51°19.573 2°35.897 7.972274 3.602827 34.641495 1.376153
2004-02-04 11:10:14 51°19.597 2°35.863 7.977404 3.604407 34.650127 1.51099
2004-02-04 11:11:14 51°19.647 2°35.839 7.975855 3.605461 34.656432 1.578409
2004-02-04 11:12:14 51°19.71 2°35.845 7.961675 3.603564 34.643593 1.207606
2004-02-04 11:13:14 51°19.775 2°35.891 7.939988 3.601035 34.6364 1.173896
2004-02-04 11:14:14 51°19.823 2°35.976 7.916985 3.597875 34.624919 1.207606
2004-02-04 11:15:14 51°19.848 2°36.072 7.907636 3.595346 34.611916 1.173896
2004-02-04 11:16:14 51°19.86 2°36.158 7.898189 3.593871 34.603569 1.308734
2004-02-04 11:17:14 51°19.867 2°36.23 7.906522 3.594081 34.60417 1.173896
2004-02-04 11:18:14 51°19.876 2°36.294 7.912383 3.595662 34.613646 1.241315
2004-02-04 11:19:14 51°19.858 2°36.417 7.925218 3.596083 34.614847 1.241315
2004-02-04 11:20:14 51°19.868 2°36.655 7.95669 3.599033 34.624907 1.207606
2004-02-04 11:21:14 51°19.898 2°36.923 7.994096 3.604512 34.647944 1.275024
2004-02-04 11:22:14 51°19.921 2°37.199 8.016346 3.609675 34.670881 1.376153
2004-02-04 11:23:14 51°19.944 2°37.476 8.020505 3.611993 34.684074 1.51099
2004-02-04 11:24:14 51°19.969 2°37.752 8.018328 3.611677 34.680696 1.409862
2004-02-04 11:25:14 51°19.991 2°38.028 8.000095 3.609464 34.666147 1.308734
2004-02-04 11:26:14 51°20.016 2°38.301 7.968935 3.606304 34.657171 1.241315
2004-02-04 11:27:14 51°20.039 2°38.575 7.934419 3.601773 34.638498 1.241315
2004-02-04 11:28:14 51°20.058 2°38.849 7.915919 3.59798 34.623562 1.140187
2004-02-04 11:29:14 51°20.075 2°39.121 7.885979 3.594819 34.616215 1.140187
2004-02-04 11:30:14 51°20.095 2°39.395 7.861648 3.591026 34.599597 1.173896
2004-02-04 11:31:14 51°20.118 2°39.67 7.873039 3.589867 34.59629 1.140187
2004-02-04 11:32:14 51°20.139 2°39.942 7.886318 3.591764 34.600873 1.039059
2004-02-04 11:33:14 51°20.155 2°40.216 7.892181 3.593555 34.61344 1.039059
2004-02-04 11:34:14 51°20.17 2°40.491 7.876286 3.593449 34.616456 1.140187
2004-02-04 11:35:14 51°20.185 2°40.769 7.877062 3.592501 34.610436 1.173896
2004-02-04 11:36:14 51°20.2 2°41.048 7.86189 3.591237 34.601027 1.140187
2004-02-04 11:37:14 51°20.212 2°41.331 7.837308 3.58776 34.590274 1.072768
2004-02-04 11:38:14 51°20.222 2°41.615 7.818829 3.584915 34.581319 1.039059
2004-02-04 11:39:14 51°20.235 2°41.909 7.803158 3.582071 34.565717 1.140187
2004-02-04 11:40:14 51°20.245 2°42.201 7.794278 3.58049 34.561195 1.106477
2004-02-04 11:41:14 51°20.254 2°42.493 7.785639 3.579437 34.55901 1.207606
2004-02-04 11:42:14 51°20.262 2°42.804 7.781223 3.577856 34.546184 1.039059
2004-02-04 11:43:14 51°20.272 2°43.194 7.757435 3.575538 34.537881 0.97164
2004-02-04 11:44:14 51°20.28 2°43.592 7.723922 3.571535 34.518923 0.735674
2004-02-04 11:45:14 51°20.29 2°43.985 7.679552 3.566267 34.499636 0.870512
2004-02-04 11:46:14 51°20.302 2°44.376 7.631162 3.558997 34.472894 0.735674
2004-02-04 11:47:14 51°20.313 2°44.78 7.594079 3.553624 34.451578 0.735674
2004-02-04 11:48:14 51°20.327 2°45.178 7.545771 3.545512 34.413986 0.668255
2004-02-04 11:49:14 51°20.346 2°45.541 7.514195 3.539506 34.380771 0.600836
2004-02-04 11:50:14 51°20.349 2°45.768 7.493769 3.53603 34.370682 0.668255
2004-02-04 11:51:14 51°20.336 2°45.899 7.484554 3.534134 34.366008 0.634546
2004-02-04 11:52:14 51°20.327 2°45.991 7.478117 3.532659 34.357557 0.836802
2004-02-04 11:53:14 51°20.315 2°46.071 7.470898 3.531921 34.352913 1.005349
2004-02-04 11:54:14 51°20.302 2°46.136 7.470313 3.531184 34.350769 1.005349
2004-02-04 11:55:14 51°20.291 2°46.182 7.467435 3.530552 34.347265 1.106477
2004-02-04 11:56:14 51°20.28 2°46.198 7.460606 3.529393 34.337227 1.005349
2004-02-04 11:57:14 51°20.282 2°46.183 7.460753 3.528866 34.337361 1.106477
2004-02-04 11:58:14 51°20.305 2°46.154 7.45807 3.52855 34.337274 1.106477
2004-02-04 11:59:14 51°20.337 2°46.122 7.468411 3.529182 34.339114 1.106477
2004-02-04 12:00:14 51°20.386 2°46.103 7.46885 3.530025 34.340733 1.207606
2004-02-04 12:01:14 51°20.451 2°46.104 7.46568 3.529814 34.345119 1.072768
2004-02-04 12:02:14 51°20.525 2°46.145 7.46807 3.531184 34.354103 1.072768
2004-02-04 12:03:14 51°20.581 2°46.247 7.474605 3.53171 34.357301 1.005349
2004-02-04 12:04:14 51°20.595 2°46.368 7.479433 3.53308 34.361281 0.97164
2004-02-04 12:05:14 51°20.578 2°46.467 7.477092 3.532659 34.357557 1.106477
2004-02-04 12:06:14 51°20.551 2°46.537 7.47046 3.532132 34.358526 0.904221
2004-02-04 12:07:14 51°20.527 2°46.575 7.46446 3.530762 34.349544 1.039059
2004-02-04 12:08:14 51°20.521 2°46.594 7.464216 3.53013 34.345205 0.93793
2004-02-04 12:09:14 51°20.518 2°46.594 7.461387 3.529393 34.343893 1.039059
2004-02-04 12:10:14 51°20.419 2°46.661 7.471679 3.529709 34.340647 1.039059
2004-02-04 12:11:14 51°20.263 2°46.904 7.46285 3.530025 34.329907 1.106477
2004-02-04 12:12:14 51°20.103 2°47.16 7.444604 3.525916 34.317938 1.039059
2004-02-04 12:13:14 51°19.95 2°47.43 7.438114 3.524125 34.303553 0.97164
2004-02-04 12:14:14 51°19.803 2°47.707 7.439578 3.523703 34.299825 0.904221
2004-02-04 12:15:14 51°19.655 2°47.984 7.440554 3.522861 34.289038 1.039059
2004-02-04 12:16:14 51°19.51 2°48.262 7.448264 3.522123 34.278561 0.97164
2004-02-04 12:17:14 51°19.362 2°48.538 7.448947 3.518752 34.237098 1.005349
2004-02-04 12:18:14 51°19.219 2°48.82 7.450069 3.516118 34.202797 1.072768
2004-02-04 12:19:14 51°19.073 2°49.099 7.443531 3.514432 34.191207 1.241315
2004-02-04 12:20:14 51°18.925 2°49.376 7.437529 3.515696 34.211524 1.409862
2004-02-04 12:21:14 51°18.776 2°49.647 7.430941 3.517909 34.242942 1.275024
2004-02-04 12:22:14 51°18.627 2°49.918 7.44436 3.51812 34.24439 1.308734
2004-02-04 12:23:14 51°18.48 2°50.191 7.455972 3.517593 34.227885 1.477281
2004-02-04 12:24:14 51°18.334 2°50.465 7.478897 3.516855 34.196665 1.5447
2004-02-04 12:25:14 51°18.202 2°50.712 7.493867 3.516749 34.179774 1.578409
2004-02-04 12:26:14 51°18.132 2°50.865 7.492111 3.520331 34.213503 1.5447
2004-02-04 12:27:14 51°18.106 2°50.938 7.493574 3.521385 34.226546 1.376153
2004-02-04 12:28:14 51°18.099 2°50.978 7.497718 3.52128 34.225408 1.342443
2004-02-04 12:29:14 51°18.084 2°51.005 7.496694 3.522333 34.232643 1.376153
2004-02-04 12:30:14 51°18.066 2°51.007 7.493867 3.522439 34.234612 1.409862
2004-02-04 12:31:14 51°18.063 2°50.979 7.494647 3.522333 34.237623 1.443571
2004-02-04 12:32:14 51°18.087 2°50.933 7.494549 3.522228 34.236484 1.376153
2004-02-04 12:33:14 51°18.134 2°50.893 7.49884 3.522439 34.235441 1.51099
2004-02-04 12:34:14 51°18.191 2°50.858 7.500887 3.522755 34.234708 1.308734
2004-02-04 12:35:14 51°18.254 2°50.843 7.497865 3.522228 34.231505 1.409862
2004-02-04 12:36:14 51°18.317 2°50.854 7.497816 3.522228 34.231505 1.207606
2004-02-04 12:37:14 51°18.379 2°50.883 7.501911 3.521912 34.225601 1.275024
2004-02-04 12:38:14 51°18.438 2°50.931 7.502545 3.521806 34.221975 1.342443
2004-02-04 12:39:14 51°18.492 2°50.997 7.501131 3.521806 34.221975 1.275024
2004-02-04 12:40:14 51°18.533 2°51.083 7.501765 3.522122 34.225389 1.376153
2004-02-04 12:41:14 51°18.554 2°51.178 7.503812 3.521701 34.220836 1.51099
2004-02-04 12:42:14 51°18.557 2°51.261 7.504836 3.522544 34.227454 1.612118
2004-02-04 12:43:14 51°18.55 2°51.328 7.503666 3.522438 34.223827 1.5447
2004-02-04 12:44:14 51°18.549 2°51.381 7.500497 3.522439 34.227145 1.443571
2004-02-04 12:45:14 51°18.542 2°51.435 7.501033 3.522649 34.23274 1.443571
2004-02-04 12:46:14 51°18.434 2°51.566 7.507663 3.522649 34.230251 1.409862
2004-02-04 12:47:14 51°18.253 2°51.749 7.502593 3.523176 34.230964 1.443571
2004-02-04 12:48:14 51°18.062 2°51.913 7.502788 3.52286 34.231697 1.578409
2004-02-04 12:49:14 51°17.87 2°52.076 7.491234 3.522017 34.224251 1.409862
2004-02-04 12:50:14 51°17.677 2°52.24 7.48075 3.519173 34.210104 1.5447
2004-02-04 12:51:14 51°17.484 2°52.401 7.466265 3.516539 34.194907 1.51099
2004-02-04 12:52:14 51°17.292 2°52.567 7.457533 3.5138 34.175246 1.5447
2004-02-04 12:53:14 51°17.1 2°52.728 7.456997 3.511587 34.149669 1.241315
2004-02-04 12:54:14 51°16.908 2°52.893 7.456509 3.50811 34.116226 1.275024
2004-02-04 12:55:14 51°16.717 2°53.067 7.464753 3.504423 34.070582 1.612118
2004-02-04 12:56:14 51°16.555 2°53.298 7.449044 3.505476 34.083621 1.612118
2004-02-04 12:57:14 51°16.5 2°53.532 7.440359 3.500841 34.049225 1.5447
2004-02-04 12:58:14 51°16.486 2°53.654 7.43465 3.496838 34.012557 1.376153
2004-02-04 12:59:14 51°16.487 2°53.717 7.437382 3.495257 34.000428 1.207606
2004-02-04 13:00:14 51°16.472 2°53.784 7.444165 3.495257 33.997125 1.241315
2004-02-04 13:01:14 51°16.448 2°53.831 7.438505 3.494731 33.990606 1.275024
2004-02-04 13:02:14 51°16.426 2°53.852 7.436797 3.493782 33.982007 1.342443
2004-02-04 13:03:14 51°16.413 2°53.85 7.435284 3.492834 33.973408 1.308734
2004-02-04 13:04:14 51°16.419 2°53.828 7.433966 3.492202 33.9674 1.376153
2004-02-04 13:05:14 51°16.45 2°53.8 7.438944 3.491781 33.963669 1.207606
2004-02-04 13:06:14 51°16.489 2°53.775 7.444214 3.492518 33.963394 1.275024
2004-02-04 13:07:14 51°16.539 2°53.754 7.447141 3.493677 33.970145 1.409862
2004-02-04 13:08:14 51°16.599 2°53.748 7.437968 3.494204 33.980787 1.241315
2004-02-04 13:09:14 51°16.663 2°53.776 7.437626 3.494098 33.988725 1.275024
2004-02-04 13:10:14 51°16.72 2°53.825 7.435089 3.495152 34.000114 1.207606
2004-02-04 13:11:14 51°16.766 2°53.893 7.435723 3.495784 34.0086 1.342443
2004-02-04 13:12:14 51°16.795 2°53.976 7.441189 3.497154 34.02093 1.376153
2004-02-04 13:13:14 51°16.805 2°54.057 7.437675 3.498313 34.028502 1.342443
2004-02-04 13:14:14 51°16.799 2°54.131 7.439383 3.498523 34.029954 1.308734
2004-02-04 13:15:14 51°16.79 2°54.191 7.434454 3.498102 34.030355 1.342443
2004-02-04 13:16:14 51°16.789 2°54.242 7.434698 3.497259 34.019591 1.173896
2004-02-04 13:17:14 51°16.729 2°54.308 7.437138 3.497048 34.018139 1.342443
2004-02-04 13:18:14 51°16.537 2°54.378 7.440701 3.495995 34.004272 1.241315
2004-02-04 13:19:14 51°16.329 2°54.369 7.455631 3.492097 33.949773 1.376153
2004-02-04 13:20:14 51°16.122 2°54.326 7.475385 3.488725 33.901011 1.308734
2004-02-04 13:21:14 51°15.914 2°54.282 7.498303 3.486407 33.854631 1.173896
2004-02-04 13:22:14 51°15.705 2°54.238 7.532567 3.485037 33.811985 1.106477
2004-02-04 13:23:14 51°15.496 2°54.195 7.555562 3.483351 33.765191 1.376153
2004-02-04 13:24:14 51°15.288 2°54.152 7.578792 3.48314 33.744958 1.612118
2004-02-04 13:25:14 51°15.079 2°54.11 7.583758 3.480085 33.689261 1.308734
2004-02-04 13:26:14 51°14.871 2°54.068 7.574166 3.476608 33.659191 1.140187
2004-02-04 13:27:14 51°14.675 2°54.033 7.574069 3.474291 33.64158 1.275024
2004-02-04 13:28:14 51°14.584 2°54.084 7.578451 3.471657 33.608374 1.140187
2004-02-04 13:29:14 51°14.567 2°54.13 7.600797 3.468812 33.567237 1.173896
2004-02-04 13:30:14 51°14.567 2°54.167 7.606637 3.469023 33.556528 1.140187
2004-02-04 13:31:14 51°14.573 2°54.202 7.614473 3.468917 33.550534 1.106477
2004-02-04 13:32:14 51°14.58 2°54.237 7.619826 3.469865 33.550999 1.106477
2004-02-04 13:33:14 51°14.589 2°54.27 7.634665 3.470392 33.550178 1.106477
2004-02-04 13:34:14 51°14.6 2°54.304 7.638703 3.470392 33.540463 1.140187
2004-02-04 13:35:14 51°14.609 2°54.339 7.64347 3.471656 33.550799 1.173896
2004-02-04 13:36:14 51°14.619 2°54.373 7.644832 3.47134 33.544978 1.140187
2004-02-04 13:37:14 51°14.628 2°54.409 7.64707 3.472288 33.547873 1.207606
2004-02-04 13:38:14 51°14.638 2°54.444 7.658888 3.473025 33.548506 1.275024
2004-02-04 13:39:14 51°14.648 2°54.478 7.670315 3.473552 33.547687 1.207606
2004-02-04 13:40:14 51°14.622 2°54.551 7.679941 3.474606 33.549286 1.207606
2004-02-04 13:41:14 51°14.522 2°54.728 7.736018 3.477555 33.559094 1.51099
2004-02-04 13:42:14 51°14.413 2°54.963 7.837308 3.484929 33.551722 1.645828